マナグア の空港の天気 - METARとTAF

マナグア国際空港 ( MNMG / MGA ) - ニカラグア マナグア県マナグア
飛行場実況気象(Metar)
観測時間08/17 20:00 CST (08/18 02:00 UTC)
風向・風速南 3m/s
視程10km以上
天気現象
少しの雲 雲底高度 610m
全天の4割程度の雲 雲底高度 2440m
気温25℃
湿度94%
気圧1011hPa
METARMNMG 180200Z 17006KT 9999 FEW020CB SCT080 25/24 Q1011 A2988 CB SE S/NW REDZ NOSIG
過去の天気等 Google飛行場航空写真 Wunderground天気予報

過去48時間のMETAR

飛行場予報(TAF)
発表時間: 8/17 17:13 CST (8/17 23:13 UTC)
予報対象時間: 17日18時 CST ~ 18日18時 CST
風向・風速東南東 3m/s
視程8000m
天気現象霧雨
全天の4割程度の雲 雲底高度 700m
全天の4割程度の雲 雲底高度 2130m
17日20時 CST ~ 18日1時 CST に一時的に
風向・風速東北東 2m/s
視程5000m
天気現象
少しの雲 雲底高度 640m
全天の8割程度の雲 雲底高度 2440m
TAF COR MNMG 172313Z 1800/1824 12006KT 8000 DZ SCT023 SCT070
TEMPO 1802/1807 06004KT 5000 RA FEW021 BKN080